sensor_id;sensor_type;location;lat;lon;timestamp;pressure;altitude;pressure_sealevel;temperature;humidity
41230;BME280;26964;50.428;19.218;2023-04-06T00:00:52;1023.0;;;-2.5;56.6
41230;BME280;26964;50.428;19.218;2023-04-06T00:01:52;1023.1;;;-2.5;56.6
41230;BME280;26964;50.428;19.218;2023-04-06T00:02:52;1023.0;;;-2.5;56.6
41230;BME280;26964;50.428;19.218;2023-04-06T00:03:52;1023.1;;;-2.5;56.6
41230;BME280;26964;50.428;19.218;2023-04-06T00:04:52;1023.1;;;-2.5;56.7
41230;BME280;26964;50.428;19.218;2023-04-06T00:05:52;1023.0;;;-2.5;56.7
41230;BME280;26964;50.428;19.218;2023-04-06T00:06:52;1023.0;;;-2.5;56.7
41230;BME280;26964;50.428;19.218;2023-04-06T00:07:52;1023.1;;;-2.6;56.7
41230;BME280;26964;50.428;19.218;2023-04-06T00:08:52;1023.0;;;-2.6;56.7
41230;BME280;26964;50.428;19.218;2023-04-06T00:09:53;1023.1;;;-2.6;56.8
41230;BME280;26964;50.428;19.218;2023-04-06T00:10:52;1023.1;;;-2.6;56.7
41230;BME280;26964;50.428;19.218;2023-04-06T00:11:52;1023.0;;;-2.7;56.8
41230;BME280;26964;50.428;19.218;2023-04-06T00:12:52;1023.0;;;-2.7;56.8
41230;BME280;26964;50.428;19.218;2023-04-06T00:13:52;1023.0;;;-2.7;56.9
41230;BME280;26964;50.428;19.218;2023-04-06T00:14:52;1023.0;;;-2.7;56.9
41230;BME280;26964;50.428;19.218;2023-04-06T00:15:52;1023.0;;;-2.7;57.0
41230;BME280;26964;50.428;19.218;2023-04-06T00:16:52;1023.1;;;-2.8;57.0
41230;BME280;26964;50.428;19.218;2023-04-06T00:17:52;1023.0;;;-2.8;57.0
41230;BME280;26964;50.428;19.218;2023-04-06T00:18:52;1023.0;;;-2.8;57.0
41230;BME280;26964;50.428;19.218;2023-04-06T00:19:52;1023.0;;;-2.8;57.1
41230;BME280;26964;50.428;19.218;2023-04-06T00:20:52;1023.1;;;-2.8;57.1
41230;BME280;26964;50.428;19.218;2023-04-06T00:21:52;1023.1;;;-2.8;57.1
41230;BME280;26964;50.428;19.218;2023-04-06T00:22:52;1023.0;;;-2.8;57.2
41230;BME280;26964;50.428;19.218;2023-04-06T00:23:52;1023.0;;;-2.8;57.1
41230;BME280;26964;50.428;19.218;2023-04-06T00:24:52;1022.9;;;-2.8;57.2
41230;BME280;26964;50.428;19.218;2023-04-06T00:25:51;1023.0;;;-2.8;57.2
41230;BME280;26964;50.428;19.218;2023-04-06T00:26:52;1022.9;;;-2.8;57.2
41230;BME280;26964;50.428;19.218;2023-04-06T00:27:52;1023.0;;;-2.8;57.2
41230;BME280;26964;50.428;19.218;2023-04-06T00:28:52;1023.0;;;-2.9;57.2
41230;BME280;26964;50.428;19.218;2023-04-06T00:29:52;1022.9;;;-2.9;57.2
41230;BME280;26964;50.428;19.218;2023-04-06T00:30:52;1022.9;;;-2.9;57.3
41230;BME280;26964;50.428;19.218;2023-04-06T00:31:52;1022.8;;;-2.9;57.3
41230;BME280;26964;50.428;19.218;2023-04-06T00:32:52;1022.9;;;-2.9;57.3
41230;BME280;26964;50.428;19.218;2023-04-06T00:33:51;1022.9;;;-2.9;57.4
41230;BME280;26964;50.428;19.218;2023-04-06T00:34:51;1022.9;;;-2.9;57.4
41230;BME280;26964;50.428;19.218;2023-04-06T00:35:52;1022.9;;;-2.9;57.4
41230;BME280;26964;50.428;19.218;2023-04-06T00:36:53;1022.8;;;-2.9;57.4
41230;BME280;26964;50.428;19.218;2023-04-06T00:37:52;1022.9;;;-3.0;57.4
41230;BME280;26964;50.428;19.218;2023-04-06T00:38:52;1022.9;;;-3.0;57.4
41230;BME280;26964;50.428;19.218;2023-04-06T00:39:52;1022.9;;;-3.0;57.5
41230;BME280;26964;50.428;19.218;2023-04-06T00:40:52;1022.9;;;-3.0;57.6
41230;BME280;26964;50.428;19.218;2023-04-06T00:41:52;1022.9;;;-3.0;57.6
41230;BME280;26964;50.428;19.218;2023-04-06T00:42:52;1022.9;;;-3.0;57.6
41230;BME280;26964;50.428;19.218;2023-04-06T00:43:51;1022.9;;;-3.0;57.6
41230;BME280;26964;50.428;19.218;2023-04-06T00:44:52;1022.9;;;-3.0;57.6
41230;BME280;26964;50.428;19.218;2023-04-06T00:45:52;1022.9;;;-3.0;57.6
41230;BME280;26964;50.428;19.218;2023-04-06T00:46:52;1022.9;;;-3.0;57.6
41230;BME280;26964;50.428;19.218;2023-04-06T00:47:51;1022.9;;;-3.0;57.6
41230;BME280;26964;50.428;19.218;2023-04-06T00:48:51;1023.0;;;-3.0;57.6
41230;BME280;26964;50.428;19.218;2023-04-06T00:49:52;1022.9;;;-3.1;57.6
41230;BME280;26964;50.428;19.218;2023-04-06T00:50:52;1022.9;;;-3.1;57.7
41230;BME280;26964;50.428;19.218;2023-04-06T00:51:52;1022.9;;;-3.1;57.7
41230;BME280;26964;50.428;19.218;2023-04-06T00:52:51;1022.9;;;-3.1;57.7
41230;BME280;26964;50.428;19.218;2023-04-06T00:53:52;1022.9;;;-3.1;57.8
41230;BME280;26964;50.428;19.218;2023-04-06T00:54:51;1022.8;;;-3.1;57.8
41230;BME280;26964;50.428;19.218;2023-04-06T00:55:52;1022.8;;;-3.1;57.8
41230;BME280;26964;50.428;19.218;2023-04-06T00:56:52;1022.9;;;-3.1;57.8
41230;BME280;26964;50.428;19.218;2023-04-06T00:57:52;1022.9;;;-3.1;57.9
41230;BME280;26964;50.428;19.218;2023-04-06T00:58:51;1022.8;;;-3.1;57.9
41230;BME280;26964;50.428;19.218;2023-04-06T00:59:52;1022.8;;;-3.1;58.0
41230;BME280;26964;50.428;19.218;2023-04-06T01:00:51;1022.8;;;-3.1;58.0
41230;BME280;26964;50.428;19.218;2023-04-06T01:01:52;1022.8;;;-3.1;58.0
41230;BME280;26964;50.428;19.218;2023-04-06T01:02:52;1022.8;;;-3.1;58.1
41230;BME280;26964;50.428;19.218;2023-04-06T01:03:52;1022.8;;;-3.1;58.1
41230;BME280;26964;50.428;19.218;2023-04-06T01:04:52;1022.9;;;-3.1;58.1
41230;BME280;26964;50.428;19.218;2023-04-06T01:05:51;1022.8;;;-3.1;58.1
41230;BME280;26964;50.428;19.218;2023-04-06T01:06:51;1022.8;;;-3.1;58.2
41230;BME280;26964;50.428;19.218;2023-04-06T01:07:52;1022.8;;;-3.1;58.2
41230;BME280;26964;50.428;19.218;2023-04-06T01:08:52;1022.9;;;-3.1;58.2
41230;BME280;26964;50.428;19.218;2023-04-06T01:09:53;1022.8;;;-3.1;58.2
41230;BME280;26964;50.428;19.218;2023-04-06T01:10:52;1022.8;;;-3.0;58.2
41230;BME280;26964;50.428;19.218;2023-04-06T01:11:52;1022.8;;;-3.0;58.2
41230;BME280;26964;50.428;19.218;2023-04-06T01:12:52;1022.8;;;-3.0;58.3
41230;BME280;26964;50.428;19.218;2023-04-06T01:13:52;1022.7;;;-3.0;58.3
41230;BME280;26964;50.428;19.218;2023-04-06T01:14:51;1022.8;;;-3.0;58.3
41230;BME280;26964;50.428;19.218;2023-04-06T01:15:51;1022.8;;;-3.0;58.3
41230;BME280;26964;50.428;19.218;2023-04-06T01:16:52;1022.8;;;-3.0;58.3
41230;BME280;26964;50.428;19.218;2023-04-06T01:17:53;1022.8;;;-3.0;58.3
41230;BME280;26964;50.428;19.218;2023-04-06T01:18:51;1022.8;;;-3.0;58.3
41230;BME280;26964;50.428;19.218;2023-04-06T01:19:52;1022.7;;;-3.0;58.3
41230;BME280;26964;50.428;19.218;2023-04-06T01:20:52;1022.8;;;-3.0;58.3
41230;BME280;26964;50.428;19.218;2023-04-06T01:21:52;1022.9;;;-3.0;58.3
41230;BME280;26964;50.428;19.218;2023-04-06T01:22:52;1022.8;;;-3.0;58.3
41230;BME280;26964;50.428;19.218;2023-04-06T01:23:52;1022.8;;;-3.0;58.3
41230;BME280;26964;50.428;19.218;2023-04-06T01:24:53;1022.8;;;-3.0;58.3
41230;BME280;26964;50.428;19.218;2023-04-06T01:25:51;1022.7;;;-3.0;58.3
41230;BME280;26964;50.428;19.218;2023-04-06T01:26:52;1022.8;;;-3.0;58.4
41230;BME280;26964;50.428;19.218;2023-04-06T01:27:52;1022.8;;;-3.0;58.4
41230;BME280;26964;50.428;19.218;2023-04-06T01:28:53;1022.8;;;-3.0;58.4
41230;BME280;26964;50.428;19.218;2023-04-06T01:29:52;1022.8;;;-3.0;58.4
41230;BME280;26964;50.428;19.218;2023-04-06T01:30:52;1022.7;;;-3.0;58.4
41230;BME280;26964;50.428;19.218;2023-04-06T01:31:52;1022.8;;;-3.0;58.4
41230;BME280;26964;50.428;19.218;2023-04-06T01:32:51;1022.8;;;-3.0;58.5
41230;BME280;26964;50.428;19.218;2023-04-06T01:33:52;1022.8;;;-3.0;58.5
41230;BME280;26964;50.428;19.218;2023-04-06T01:34:51;1022.8;;;-3.0;58.5
41230;BME280;26964;50.428;19.218;2023-04-06T01:35:51;1022.9;;;-3.0;58.6
41230;BME280;26964;50.428;19.218;2023-04-06T01:36:51;1022.8;;;-3.0;58.5
41230;BME280;26964;50.428;19.218;2023-04-06T01:37:51;1022.9;;;-3.0;58.5
41230;BME280;26964;50.428;19.218;2023-04-06T01:38:51;1022.9;;;-3.0;58.6
41230;BME280;26964;50.428;19.218;2023-04-06T01:39:51;1022.7;;;-3.0;58.6
41230;BME280;26964;50.428;19.218;2023-04-06T01:40:51;1022.7;;;-3.0;58.6
41230;BME280;26964;50.428;19.218;2023-04-06T01:41:52;1022.8;;;-3.0;58.6
41230;BME280;26964;50.428;19.218;2023-04-06T01:42:52;1022.8;;;-3.0;58.7
41230;BME280;26964;50.428;19.218;2023-04-06T01:43:52;1022.8;;;-3.0;58.7
41230;BME280;26964;50.428;19.218;2023-04-06T01:44:51;1022.7;;;-3.0;58.7
41230;BME280;26964;50.428;19.218;2023-04-06T01:45:52;1022.7;;;-3.0;58.7
41230;BME280;26964;50.428;19.218;2023-04-06T01:46:52;1022.7;;;-3.0;58.7
41230;BME280;26964;50.428;19.218;2023-04-06T01:47:52;1022.7;;;-3.0;58.8
41230;BME280;26964;50.428;19.218;2023-04-06T01:48:52;1022.7;;;-3.0;58.8
41230;BME280;26964;50.428;19.218;2023-04-06T01:49:52;1022.6;;;-3.0;58.8
41230;BME280;26964;50.428;19.218;2023-04-06T01:50:52;1022.6;;;-3.0;58.8
41230;BME280;26964;50.428;19.218;2023-04-06T01:51:52;1022.6;;;-3.0;58.8
41230;BME280;26964;50.428;19.218;2023-04-06T01:52:51;1022.6;;;-3.0;58.8
41230;BME280;26964;50.428;19.218;2023-04-06T01:53:52;1022.6;;;-3.0;58.9
41230;BME280;26964;50.428;19.218;2023-04-06T01:54:52;1022.6;;;-3.0;58.9
41230;BME280;26964;50.428;19.218;2023-04-06T01:55:52;1022.6;;;-3.0;58.9
41230;BME280;26964;50.428;19.218;2023-04-06T01:56:52;1022.6;;;-3.0;58.9
41230;BME280;26964;50.428;19.218;2023-04-06T01:57:51;1022.6;;;-3.0;59.0
41230;BME280;26964;50.428;19.218;2023-04-06T01:58:52;1022.6;;;-3.0;58.9
41230;BME280;26964;50.428;19.218;2023-04-06T01:59:52;1022.7;;;-3.0;59.0
41230;BME280;26964;50.428;19.218;2023-04-06T02:00:52;1022.6;;;-3.0;59.0
41230;BME280;26964;50.428;19.218;2023-04-06T02:01:52;1022.6;;;-3.0;59.0
41230;BME280;26964;50.428;19.218;2023-04-06T02:02:52;1022.5;;;-3.0;59.0
41230;BME280;26964;50.428;19.218;2023-04-06T02:03:51;1022.6;;;-3.0;59.0
41230;BME280;26964;50.428;19.218;2023-04-06T02:04:52;1022.6;;;-3.0;59.0
41230;BME280;26964;50.428;19.218;2023-04-06T02:05:52;1022.7;;;-3.0;59.0
41230;BME280;26964;50.428;19.218;2023-04-06T02:06:52;1022.6;;;-3.0;59.0
41230;BME280;26964;50.428;19.218;2023-04-06T02:07:51;1022.6;;;-2.9;59.0
41230;BME280;26964;50.428;19.218;2023-04-06T02:08:52;1022.6;;;-3.0;59.0
41230;BME280;26964;50.428;19.218;2023-04-06T02:09:54;1022.6;;;-3.0;59.1
41230;BME280;26964;50.428;19.218;2023-04-06T02:10:52;1022.6;;;-3.0;59.0
41230;BME280;26964;50.428;19.218;2023-04-06T02:11:52;1022.6;;;-3.0;59.1
41230;BME280;26964;50.428;19.218;2023-04-06T02:12:52;1022.6;;;-3.0;59.1
41230;BME280;26964;50.428;19.218;2023-04-06T02:13:52;1022.6;;;-3.0;59.1
41230;BME280;26964;50.428;19.218;2023-04-06T02:14:51;1022.6;;;-3.0;59.1
41230;BME280;26964;50.428;19.218;2023-04-06T02:15:52;1022.6;;;-3.0;59.1
41230;BME280;26964;50.428;19.218;2023-04-06T02:16:52;1022.5;;;-3.0;59.1
41230;BME280;26964;50.428;19.218;2023-04-06T02:17:52;1022.6;;;-3.0;59.1
41230;BME280;26964;50.428;19.218;2023-04-06T02:18:51;1022.6;;;-3.0;59.1
41230;BME280;26964;50.428;19.218;2023-04-06T02:19:52;1022.6;;;-3.0;59.1
41230;BME280;26964;50.428;19.218;2023-04-06T02:20:52;1022.6;;;-3.0;59.2
41230;BME280;26964;50.428;19.218;2023-04-06T02:21:52;1022.6;;;-3.0;59.2
41230;BME280;26964;50.428;19.218;2023-04-06T02:22:52;1022.6;;;-3.0;59.2
41230;BME280;26964;50.428;19.218;2023-04-06T02:23:52;1022.6;;;-3.0;59.3
41230;BME280;26964;50.428;19.218;2023-04-06T02:24:52;1022.5;;;-3.0;59.3
41230;BME280;26964;50.428;19.218;2023-04-06T02:25:51;1022.6;;;-3.0;59.3
41230;BME280;26964;50.428;19.218;2023-04-06T02:26:52;1022.6;;;-3.0;59.3
41230;BME280;26964;50.428;19.218;2023-04-06T02:27:52;1022.5;;;-3.0;59.3
41230;BME280;26964;50.428;19.218;2023-04-06T02:28:52;1022.5;;;-3.0;59.3
41230;BME280;26964;50.428;19.218;2023-04-06T02:29:52;1022.6;;;-3.0;59.3
41230;BME280;26964;50.428;19.218;2023-04-06T02:30:52;1022.6;;;-3.0;59.3
41230;BME280;26964;50.428;19.218;2023-04-06T02:31:52;1022.6;;;-3.0;59.4
41230;BME280;26964;50.428;19.218;2023-04-06T02:32:52;1022.6;;;-3.0;59.3
41230;BME280;26964;50.428;19.218;2023-04-06T02:33:51;1022.6;;;-3.0;59.4
41230;BME280;26964;50.428;19.218;2023-04-06T02:34:51;1022.6;;;-3.0;59.4
41230;BME280;26964;50.428;19.218;2023-04-06T02:35:52;1022.6;;;-3.0;59.4
41230;BME280;26964;50.428;19.218;2023-04-06T02:36:52;1022.6;;;-3.0;59.4
41230;BME280;26964;50.428;19.218;2023-04-06T02:37:52;1022.6;;;-3.0;59.4
41230;BME280;26964;50.428;19.218;2023-04-06T02:38:52;1022.6;;;-3.0;59.4
41230;BME280;26964;50.428;19.218;2023-04-06T02:39:52;1022.6;;;-3.0;59.3
41230;BME280;26964;50.428;19.218;2023-04-06T02:40:52;1022.6;;;-3.0;59.4
41230;BME280;26964;50.428;19.218;2023-04-06T02:41:51;1022.6;;;-3.1;59.4
41230;BME280;26964;50.428;19.218;2023-04-06T02:42:51;1022.6;;;-3.1;59.4
41230;BME280;26964;50.428;19.218;2023-04-06T02:43:52;1022.6;;;-3.1;59.4
41230;BME280;26964;50.428;19.218;2023-04-06T02:44:52;1022.6;;;-3.1;59.4
41230;BME280;26964;50.428;19.218;2023-04-06T02:45:52;1022.5;;;-3.1;59.4
41230;BME280;26964;50.428;19.218;2023-04-06T02:46:52;1022.6;;;-3.1;59.5
41230;BME280;26964;50.428;19.218;2023-04-06T02:47:51;1022.6;;;-3.1;59.5
41230;BME280;26964;50.428;19.218;2023-04-06T02:48:52;1022.5;;;-3.1;59.5
41230;BME280;26964;50.428;19.218;2023-04-06T02:49:52;1022.5;;;-3.1;59.5
41230;BME280;26964;50.428;19.218;2023-04-06T02:50:52;1022.6;;;-3.1;59.5
41230;BME280;26964;50.428;19.218;2023-04-06T02:51:53;1022.5;;;-3.1;59.6
41230;BME280;26964;50.428;19.218;2023-04-06T02:52:52;1022.6;;;-3.1;59.5
41230;BME280;26964;50.428;19.218;2023-04-06T02:53:52;1022.6;;;-3.1;59.6
41230;BME280;26964;50.428;19.218;2023-04-06T02:54:52;1022.5;;;-3.1;59.6
41230;BME280;26964;50.428;19.218;2023-04-06T02:55:52;1022.6;;;-3.2;59.6
41230;BME280;26964;50.428;19.218;2023-04-06T02:56:52;1022.6;;;-3.2;59.6
41230;BME280;26964;50.428;19.218;2023-04-06T02:57:52;1022.6;;;-3.2;59.6
41230;BME280;26964;50.428;19.218;2023-04-06T02:58:51;1022.6;;;-3.2;59.6
41230;BME280;26964;50.428;19.218;2023-04-06T02:59:52;1022.6;;;-3.2;59.6
41230;BME280;26964;50.428;19.218;2023-04-06T03:00:52;1022.6;;;-3.2;59.6
41230;BME280;26964;50.428;19.218;2023-04-06T03:01:52;1022.6;;;-3.2;59.6
41230;BME280;26964;50.428;19.218;2023-04-06T03:02:52;1022.7;;;-3.2;59.6
41230;BME280;26964;50.428;19.218;2023-04-06T03:03:52;1022.7;;;-3.2;59.6
41230;BME280;26964;50.428;19.218;2023-04-06T03:04:52;1022.6;;;-3.3;59.6
41230;BME280;26964;50.428;19.218;2023-04-06T03:05:52;1022.7;;;-3.3;59.6
41230;BME280;26964;50.428;19.218;2023-04-06T03:06:53;1022.7;;;-3.3;59.6
41230;BME280;26964;50.428;19.218;2023-04-06T03:07:52;1022.6;;;-3.3;59.6
41230;BME280;26964;50.428;19.218;2023-04-06T03:08:52;1022.6;;;-3.3;59.6
41230;BME280;26964;50.428;19.218;2023-04-06T03:09:51;1022.7;;;-3.3;59.6
41230;BME280;26964;50.428;19.218;2023-04-06T03:10:52;1022.7;;;-3.3;59.6
41230;BME280;26964;50.428;19.218;2023-04-06T03:11:52;1022.7;;;-3.3;59.6
41230;BME280;26964;50.428;19.218;2023-04-06T03:12:52;1022.6;;;-3.4;59.6
41230;BME280;26964;50.428;19.218;2023-04-06T03:13:52;1022.7;;;-3.4;59.6
41230;BME280;26964;50.428;19.218;2023-04-06T03:14:52;1022.7;;;-3.4;59.6
41230;BME280;26964;50.428;19.218;2023-04-06T03:15:52;1022.7;;;-3.4;59.6
41230;BME280;26964;50.428;19.218;2023-04-06T03:16:51;1022.6;;;-3.5;59.7
41230;BME280;26964;50.428;19.218;2023-04-06T03:17:52;1022.7;;;-3.5;59.7
41230;BME280;26964;50.428;19.218;2023-04-06T03:18:51;1022.6;;;-3.5;59.7
41230;BME280;26964;50.428;19.218;2023-04-06T03:19:52;1022.8;;;-3.5;59.7
41230;BME280;26964;50.428;19.218;2023-04-06T03:20:52;1022.7;;;-3.5;59.7
41230;BME280;26964;50.428;19.218;2023-04-06T03:21:52;1022.7;;;-3.5;59.7
41230;BME280;26964;50.428;19.218;2023-04-06T03:22:52;1022.7;;;-3.6;59.7
41230;BME280;26964;50.428;19.218;2023-04-06T03:23:52;1022.6;;;-3.6;59.7
41230;BME280;26964;50.428;19.218;2023-04-06T03:24:52;1022.7;;;-3.6;59.7
41230;BME280;26964;50.428;19.218;2023-04-06T03:25:52;1022.6;;;-3.7;59.7
41230;BME280;26964;50.428;19.218;2023-04-06T03:26:52;1022.7;;;-3.7;59.7
41230;BME280;26964;50.428;19.218;2023-04-06T03:27:52;1022.6;;;-3.7;59.8
41230;BME280;26964;50.428;19.218;2023-04-06T03:28:52;1022.6;;;-3.7;59.8
41230;BME280;26964;50.428;19.218;2023-04-06T03:29:52;1022.6;;;-3.7;59.9
41230;BME280;26964;50.428;19.218;2023-04-06T03:30:52;1022.7;;;-3.7;59.9
41230;BME280;26964;50.428;19.218;2023-04-06T03:31:51;1022.7;;;-3.7;60.0
41230;BME280;26964;50.428;19.218;2023-04-06T03:32:52;1022.6;;;-3.7;59.9
41230;BME280;26964;50.428;19.218;2023-04-06T03:33:52;1022.6;;;-3.7;60.0
41230;BME280;26964;50.428;19.218;2023-04-06T03:34:52;1022.7;;;-3.7;60.0
41230;BME280;26964;50.428;19.218;2023-04-06T03:35:51;1022.7;;;-3.7;60.0
41230;BME280;26964;50.428;19.218;2023-04-06T03:36:52;1022.7;;;-3.8;60.0
41230;BME280;26964;50.428;19.218;2023-04-06T03:37:52;1022.6;;;-3.8;60.0
41230;BME280;26964;50.428;19.218;2023-04-06T03:38:52;1022.7;;;-3.8;60.0
41230;BME280;26964;50.428;19.218;2023-04-06T03:39:52;1022.6;;;-3.8;60.0
41230;BME280;26964;50.428;19.218;2023-04-06T03:40:52;1022.7;;;-3.8;60.0
41230;BME280;26964;50.428;19.218;2023-04-06T03:41:51;1022.7;;;-3.8;60.0
41230;BME280;26964;50.428;19.218;2023-04-06T03:42:51;1022.7;;;-3.8;60.0
41230;BME280;26964;50.428;19.218;2023-04-06T03:43:52;1022.7;;;-3.8;60.0
41230;BME280;26964;50.428;19.218;2023-04-06T03:44:52;1022.8;;;-3.8;60.0
41230;BME280;26964;50.428;19.218;2023-04-06T03:45:53;1022.6;;;-3.9;60.0
41230;BME280;26964;50.428;19.218;2023-04-06T03:46:51;1022.7;;;-3.9;60.1
41230;BME280;26964;50.428;19.218;2023-04-06T03:47:52;1022.7;;;-3.9;60.1
41230;BME280;26964;50.428;19.218;2023-04-06T03:48:52;1022.7;;;-3.9;60.1
41230;BME280;26964;50.428;19.218;2023-04-06T03:49:51;1022.7;;;-3.9;60.1
41230;BME280;26964;50.428;19.218;2023-04-06T03:50:52;1022.7;;;-4.0;60.1
41230;BME280;26964;50.428;19.218;2023-04-06T03:51:52;1022.7;;;-4.0;60.1
41230;BME280;26964;50.428;19.218;2023-04-06T03:52:51;1022.7;;;-4.0;60.1
41230;BME280;26964;50.428;19.218;2023-04-06T03:53:51;1022.7;;;-4.0;60.1
41230;BME280;26964;50.428;19.218;2023-04-06T03:54:51;1022.6;;;-4.1;60.1
41230;BME280;26964;50.428;19.218;2023-04-06T03:55:52;1022.7;;;-4.1;60.1
41230;BME280;26964;50.428;19.218;2023-04-06T03:56:52;1022.7;;;-4.1;60.1
41230;BME280;26964;50.428;19.218;2023-04-06T03:57:52;1022.7;;;-4.1;60.1
41230;BME280;26964;50.428;19.218;2023-04-06T03:58:52;1022.8;;;-4.1;60.1
41230;BME280;26964;50.428;19.218;2023-04-06T03:59:52;1022.8;;;-4.2;60.1
41230;BME280;26964;50.428;19.218;2023-04-06T04:00:52;1022.7;;;-4.2;60.2
41230;BME280;26964;50.428;19.218;2023-04-06T04:01:52;1022.8;;;-4.2;60.2
41230;BME280;26964;50.428;19.218;2023-04-06T04:02:52;1022.7;;;-4.2;60.2
41230;BME280;26964;50.428;19.218;2023-04-06T04:03:52;1022.7;;;-4.2;60.2
41230;BME280;26964;50.428;19.218;2023-04-06T04:04:51;1022.8;;;-4.2;60.3
41230;BME280;26964;50.428;19.218;2023-04-06T04:05:52;1022.7;;;-4.2;60.3
41230;BME280;26964;50.428;19.218;2023-04-06T04:06:52;1022.7;;;-4.2;60.3
41230;BME280;26964;50.428;19.218;2023-04-06T04:07:51;1022.8;;;-4.2;60.3
41230;BME280;26964;50.428;19.218;2023-04-06T04:08:52;1022.7;;;-4.3;60.4
41230;BME280;26964;50.428;19.218;2023-04-06T04:09:52;1022.7;;;-4.3;60.4
41230;BME280;26964;50.428;19.218;2023-04-06T04:10:52;1022.8;;;-4.3;60.4
41230;BME280;26964;50.428;19.218;2023-04-06T04:11:52;1022.8;;;-4.3;60.4
41230;BME280;26964;50.428;19.218;2023-04-06T04:12:52;1022.7;;;-4.3;60.4
41230;BME280;26964;50.428;19.218;2023-04-06T04:13:52;1022.7;;;-4.3;60.4
41230;BME280;26964;50.428;19.218;2023-04-06T04:14:52;1022.8;;;-4.3;60.4
41230;BME280;26964;50.428;19.218;2023-04-06T04:15:51;1022.8;;;-4.3;60.4
41230;BME280;26964;50.428;19.218;2023-04-06T04:16:52;1022.8;;;-4.3;60.5
41230;BME280;26964;50.428;19.218;2023-04-06T04:17:52;1022.8;;;-4.3;60.5
41230;BME280;26964;50.428;19.218;2023-04-06T04:18:52;1022.8;;;-4.3;60.5
41230;BME280;26964;50.428;19.218;2023-04-06T04:19:52;1022.8;;;-4.4;60.5
41230;BME280;26964;50.428;19.218;2023-04-06T04:20:52;1022.9;;;-4.4;60.5
41230;BME280;26964;50.428;19.218;2023-04-06T04:21:52;1022.9;;;-4.4;60.5
41230;BME280;26964;50.428;19.218;2023-04-06T04:22:52;1022.8;;;-4.4;60.5
41230;BME280;26964;50.428;19.218;2023-04-06T04:23:52;1022.8;;;-4.4;60.5
41230;BME280;26964;50.428;19.218;2023-04-06T04:24:52;1022.8;;;-4.4;60.6
41230;BME280;26964;50.428;19.218;2023-04-06T04:25:52;1022.8;;;-4.4;60.6
41230;BME280;26964;50.428;19.218;2023-04-06T04:26:51;1022.7;;;-4.4;60.6
41230;BME280;26964;50.428;19.218;2023-04-06T04:27:52;1022.7;;;-4.4;60.6
41230;BME280;26964;50.428;19.218;2023-04-06T04:28:52;1022.8;;;-4.4;60.6
41230;BME280;26964;50.428;19.218;2023-04-06T04:29:52;1022.8;;;-4.4;60.6
41230;BME280;26964;50.428;19.218;2023-04-06T04:30:51;1022.7;;;-4.4;60.6
41230;BME280;26964;50.428;19.218;2023-04-06T04:31:52;1022.7;;;-4.4;60.7
41230;BME280;26964;50.428;19.218;2023-04-06T04:32:51;1022.7;;;-4.4;60.7
41230;BME280;26964;50.428;19.218;2023-04-06T04:33:51;1022.7;;;-4.4;60.7
41230;BME280;26964;50.428;19.218;2023-04-06T04:34:52;1022.7;;;-4.4;60.8
41230;BME280;26964;50.428;19.218;2023-04-06T04:35:52;1022.7;;;-4.4;60.8
41230;BME280;26964;50.428;19.218;2023-04-06T04:36:51;1022.7;;;-4.4;60.8
41230;BME280;26964;50.428;19.218;2023-04-06T04:37:51;1022.8;;;-4.4;60.8
41230;BME280;26964;50.428;19.218;2023-04-06T04:38:51;1022.8;;;-4.4;60.8
41230;BME280;26964;50.428;19.218;2023-04-06T04:39:52;1022.7;;;-4.3;60.8
41230;BME280;26964;50.428;19.218;2023-04-06T04:40:52;1022.7;;;-4.3;60.8
41230;BME280;26964;50.428;19.218;2023-04-06T04:41:52;1022.8;;;-4.3;60.8
41230;BME280;26964;50.428;19.218;2023-04-06T04:42:51;1022.7;;;-4.3;60.9
41230;BME280;26964;50.428;19.218;2023-04-06T04:43:52;1022.7;;;-4.3;60.9
41230;BME280;26964;50.428;19.218;2023-04-06T04:44:52;1022.8;;;-4.3;60.9
41230;BME280;26964;50.428;19.218;2023-04-06T04:45:52;1022.8;;;-4.3;60.9
41230;BME280;26964;50.428;19.218;2023-04-06T04:46:51;1022.8;;;-4.3;61.0
41230;BME280;26964;50.428;19.218;2023-04-06T04:47:52;1022.8;;;-4.3;61.0
41230;BME280;26964;50.428;19.218;2023-04-06T04:48:51;1022.8;;;-4.2;61.0
41230;BME280;26964;50.428;19.218;2023-04-06T04:49:52;1022.8;;;-4.2;61.0
41230;BME280;26964;50.428;19.218;2023-04-06T04:50:52;1022.8;;;-4.2;61.0
41230;BME280;26964;50.428;19.218;2023-04-06T04:51:52;1022.8;;;-4.2;61.1
41230;BME280;26964;50.428;19.218;2023-04-06T04:52:52;1022.7;;;-4.2;61.1
41230;BME280;26964;50.428;19.218;2023-04-06T04:53:52;1022.7;;;-4.2;61.1
41230;BME280;26964;50.428;19.218;2023-04-06T04:54:52;1022.7;;;-4.2;61.1
41230;BME280;26964;50.428;19.218;2023-04-06T04:55:52;1022.7;;;-4.1;61.3
41230;BME280;26964;50.428;19.218;2023-04-06T04:56:52;1022.7;;;-4.1;61.4
41230;BME280;26964;50.428;19.218;2023-04-06T04:57:52;1022.7;;;-4.1;61.4
41230;BME280;26964;50.428;19.218;2023-04-06T04:58:52;1022.6;;;-4.0;61.5
41230;BME280;26964;50.428;19.218;2023-04-06T04:59:51;1022.7;;;-4.0;61.5
41230;BME280;26964;50.428;19.218;2023-04-06T05:00:52;1022.7;;;-3.9;61.6
41230;BME280;26964;50.428;19.218;2023-04-06T05:01:52;1022.7;;;-3.9;61.5
41230;BME280;26964;50.428;19.218;2023-04-06T05:02:52;1022.7;;;-3.8;61.5
41230;BME280;26964;50.428;19.218;2023-04-06T05:03:52;1022.6;;;-3.8;61.6
41230;BME280;26964;50.428;19.218;2023-04-06T05:04:52;1022.7;;;-3.8;61.6
41230;BME280;26964;50.428;19.218;2023-04-06T05:05:51;1022.6;;;-3.7;61.6
41230;BME280;26964;50.428;19.218;2023-04-06T05:07:51;1022.7;;;-3.6;61.6
41230;BME280;26964;50.428;19.218;2023-04-06T05:08:52;1022.7;;;-3.6;61.7
41230;BME280;26964;50.428;19.218;2023-04-06T05:09:52;1022.7;;;-3.5;61.7
41230;BME280;26964;50.428;19.218;2023-04-06T05:10:51;1022.6;;;-3.5;61.7
41230;BME280;26964;50.428;19.218;2023-04-06T05:11:52;1022.6;;;-3.5;61.7
41230;BME280;26964;50.428;19.218;2023-04-06T05:12:51;1022.6;;;-3.4;61.7
41230;BME280;26964;50.428;19.218;2023-04-06T05:13:52;1022.7;;;-3.4;61.6
41230;BME280;26964;50.428;19.218;2023-04-06T05:14:51;1022.7;;;-3.3;61.7
41230;BME280;26964;50.428;19.218;2023-04-06T05:15:52;1022.7;;;-3.3;61.7
41230;BME280;26964;50.428;19.218;2023-04-06T05:16:51;1022.7;;;-3.3;61.7
41230;BME280;26964;50.428;19.218;2023-04-06T05:17:51;1022.7;;;-3.2;61.7
41230;BME280;26964;50.428;19.218;2023-04-06T05:18:52;1022.7;;;-3.2;61.7
41230;BME280;26964;50.428;19.218;2023-04-06T05:19:52;1022.6;;;-3.2;61.7
41230;BME280;26964;50.428;19.218;2023-04-06T05:20:52;1022.6;;;-3.1;61.7
41230;BME280;26964;50.428;19.218;2023-04-06T05:21:51;1022.7;;;-3.1;61.7
41230;BME280;26964;50.428;19.218;2023-04-06T05:22:51;1022.6;;;-3.0;61.7
41230;BME280;26964;50.428;19.218;2023-04-06T05:23:52;1022.6;;;-3.0;61.7
41230;BME280;26964;50.428;19.218;2023-04-06T05:24:52;1022.7;;;-3.0;61.7
41230;BME280;26964;50.428;19.218;2023-04-06T05:25:51;1022.7;;;-2.9;61.7
41230;BME280;26964;50.428;19.218;2023-04-06T05:26:51;1022.7;;;-2.9;61.7
41230;BME280;26964;50.428;19.218;2023-04-06T05:27:51;1022.7;;;-2.8;61.7
41230;BME280;26964;50.428;19.218;2023-04-06T05:28:51;1022.6;;;-2.8;61.7
41230;BME280;26964;50.428;19.218;2023-04-06T05:29:51;1022.6;;;-2.8;61.7
41230;BME280;26964;50.428;19.218;2023-04-06T05:30:51;1022.6;;;-2.7;61.7
41230;BME280;26964;50.428;19.218;2023-04-06T05:31:51;1022.6;;;-2.7;61.7